Terminal Aerodrome Forecast
Issued by NWS

Home | Current Version | Previous Version | Text Only | Print | Product List | Glossary On
Versions: 1 2 3 4 5 6 7 8 9 10 11 12 13 14 15 16 17 18 19 20
611
FTUS43 KBIS 202333
TAFDIK
TAF
KDIK 202333Z 2100/2124 19008KT P6SM BKN090
     FM210700 21009KT P6SM BKN150 WS020/27040KT
     FM211300 25011KT P6SM BKN110=

USA.gov is the U.S. government's official web portal to all federal, state and local government web resources and services.